Terminal Aerodrome Forecast
Issued by NWS Mt. Holly, NJ

Home | Current Version | Previous Version | Text Only | Print | Product List | Glossary On
Versions: 1 2 3 4 5 6 7 8 9 10 11 12 13 14 15 16 17 18 19 20 21 22 23 24 25
000
FTUS41 KPHI 022100 AAA
TAFABE
TAF AMD
KABE 022121Z 0221/0318 25010KT P6SM SCT040 BKN150
     FM022330 26007KT P6SM VCSH BKN040
      TEMPO 0300/0302 3SM TSRA BKN035CB
     FM030300 28005KT P6SM FEW050 SCT250
     FM030700 31005KT P6SM SCT150=

USA.gov is the U.S. government's official web portal to all federal, state and local government web resources and services.